createdAt,value
2023-11-26T00:00:59.869Z,82.90
2023-11-26T00:03:32.325Z,82.75
2023-11-26T00:06:01.437Z,83.01
2023-11-26T00:08:28.430Z,83.41
2023-11-26T00:10:56.509Z,83.19
2023-11-26T00:13:27.807Z,83.62
2023-11-26T00:15:54.969Z,83.81
2023-11-26T00:18:22.166Z,83.98
2023-11-26T00:20:49.111Z,83.63
2023-11-26T00:23:17.035Z,83.90
2023-11-26T00:25:43.935Z,83.87
2023-11-26T00:28:13.191Z,84.04
2023-11-26T00:30:40.246Z,84.34
2023-11-26T00:33:09.428Z,84.61
2023-11-26T00:35:37.956Z,84.72
2023-11-26T00:38:06.766Z,85.13
2023-11-26T00:40:35.528Z,85.38
2023-11-26T00:43:02.886Z,85.59
2023-11-26T00:45:31.538Z,86.21
2023-11-26T00:48:02.499Z,86.22
2023-11-26T00:50:32.367Z,86.10
2023-11-26T00:53:00.954Z,86.59
2023-11-26T00:55:30.272Z,86.43
2023-11-26T00:57:58.503Z,86.23
2023-11-26T01:00:26.498Z,86.57
2023-11-26T01:02:58.352Z,86.50
2023-11-26T01:05:25.467Z,86.56
2023-11-26T01:07:54.461Z,86.36
2023-11-26T01:10:25.140Z,86.85
2023-11-26T01:12:53.392Z,86.61
2023-11-26T01:15:21.176Z,86.38
2023-11-26T01:17:49.138Z,86.52
2023-11-26T01:20:16.306Z,87.00
2023-11-26T01:22:44.362Z,86.83
2023-11-26T01:25:12.446Z,87.34
2023-11-26T01:27:42.591Z,87.32
2023-11-26T01:30:10.797Z,87.49
2023-11-26T01:32:37.819Z,87.49
2023-11-26T01:35:06.062Z,87.55
2023-11-26T01:37:34.566Z,87.57
2023-11-26T01:40:02.586Z,87.86
2023-11-26T01:42:29.917Z,87.85
2023-11-26T01:44:57.072Z,87.82
2023-11-26T01:47:25.830Z,87.82
2023-11-26T01:49:53.279Z,88.04
2023-11-26T01:52:20.320Z,87.87
2023-11-26T01:54:47.474Z,87.89
2023-11-26T01:57:17.646Z,87.81
2023-11-26T01:59:44.844Z,88.08
2023-11-26T02:02:11.978Z,88.11
2023-11-26T02:04:39.257Z,88.09
2023-11-26T02:07:07.380Z,88.28
2023-11-26T02:09:34.558Z,88.32
2023-11-26T02:12:03.707Z,88.38
2023-11-26T02:14:32.466Z,88.73
2023-11-26T02:17:04.558Z,88.75
2023-11-26T02:19:39.978Z,88.78
2023-11-26T02:22:11.069Z,88.93
2023-11-26T02:24:53.896Z,88.61
2023-11-26T02:27:21.359Z,89.39
2023-11-26T02:29:48.397Z,89.32
2023-11-26T02:32:15.477Z,89.29
2023-11-26T02:34:43.118Z,89.79
2023-11-26T02:37:10.123Z,89.71
2023-11-26T02:39:37.001Z,90.04
2023-11-26T02:42:04.182Z,90.22
2023-11-26T02:44:31.491Z,90.21
2023-11-26T02:46:59.179Z,90.36
2023-11-26T02:49:28.324Z,90.58
2023-11-26T02:51:55.336Z,90.65
2023-11-26T02:54:22.456Z,90.98
2023-11-26T02:56:50.257Z,90.87
2023-11-26T02:59:17.518Z,91.21
2023-11-26T03:01:44.609Z,91.28
2023-11-26T03:04:11.842Z,91.56
2023-11-26T03:06:40.748Z,91.99
2023-11-26T03:09:26.497Z,91.90
2023-11-26T03:12:13.556Z,92.05
2023-11-26T03:14:41.024Z,92.30
2023-11-26T03:17:08.581Z,92.81
2023-11-26T03:19:35.657Z,92.78
2023-11-26T03:22:08.965Z,93.15
2023-11-26T03:24:36.124Z,93.67
2023-11-26T03:27:04.147Z,93.20
2023-11-26T03:29:31.210Z,93.64
2023-11-26T03:31:58.468Z,93.50
2023-11-26T03:34:29.877Z,93.53
2023-11-26T03:36:58.294Z,94.04
2023-11-26T03:39:26.142Z,94.40
2023-11-26T03:41:53.098Z,94.30
2023-11-26T03:44:20.373Z,94.41
2023-11-26T03:46:47.553Z,94.70
2023-11-26T03:49:14.507Z,94.68
2023-11-26T03:51:41.461Z,94.82
2023-11-26T03:54:08.684Z,94.37
2023-11-26T03:56:35.597Z,94.46
2023-11-26T03:59:02.636Z,94.86
2023-11-26T04:01:29.634Z,94.92
2023-11-26T04:03:56.741Z,95.02
2023-11-26T04:06:24.256Z,95.17
2023-11-26T04:08:51.193Z,95.37
2023-11-26T04:11:18.141Z,95.61
2023-11-26T04:13:45.271Z,95.30
2023-11-26T04:16:14.738Z,95.60
2023-11-26T04:18:41.696Z,95.69
2023-11-26T04:21:11.389Z,95.29
2023-11-26T04:23:38.610Z,95.24
2023-11-26T04:26:08.172Z,95.27
2023-11-26T04:28:35.460Z,95.80
2023-11-26T04:31:03.875Z,95.59
2023-11-26T04:33:30.877Z,95.39
2023-11-26T04:35:57.959Z,95.17
2023-11-26T04:38:25.227Z,95.46
2023-11-26T04:40:52.615Z,95.58
2023-11-26T04:43:19.669Z,95.17
2023-11-26T04:45:46.803Z,95.36
2023-11-26T04:48:13.997Z,95.63
2023-11-26T04:50:40.922Z,95.68
2023-11-26T04:53:07.944Z,95.48
2023-11-26T04:55:34.952Z,95.54
2023-11-26T04:58:01.828Z,95.45
2023-11-26T05:00:30.276Z,95.39
2023-11-26T05:02:57.312Z,95.43
2023-11-26T05:05:24.645Z,95.69
2023-11-26T05:07:51.610Z,95.91
2023-11-26T05:10:18.681Z,95.55
2023-11-26T05:12:45.548Z,95.74
2023-11-26T05:15:12.655Z,96.04
2023-11-26T05:17:40.070Z,95.61
2023-11-26T05:20:14.753Z,95.76
2023-11-26T05:22:42.141Z,95.50
2023-11-26T05:25:09.252Z,95.56
2023-11-26T05:27:36.388Z,95.41
2023-11-26T05:30:04.965Z,95.31
2023-11-26T05:32:32.118Z,95.40
2023-11-26T05:34:59.982Z,95.17
2023-11-26T05:37:26.957Z,95.08
2023-11-26T05:39:53.889Z,95.07
2023-11-26T05:42:20.718Z,94.73
2023-11-26T05:44:47.604Z,94.55
2023-11-26T05:47:14.715Z,94.76
2023-11-26T05:49:41.751Z,94.72
2023-11-26T05:52:08.677Z,94.55
2023-11-26T05:54:35.774Z,94.68
2023-11-26T05:57:02.665Z,94.95
2023-11-26T05:59:29.593Z,94.79
2023-11-26T06:01:56.894Z,94.70
2023-11-26T06:04:24.938Z,94.93
2023-11-26T06:06:52.277Z,94.90
2023-11-26T06:09:19.213Z,95.12
2023-11-26T06:11:47.314Z,95.04
2023-11-26T06:14:14.587Z,95.10
2023-11-26T06:16:45.278Z,94.67
2023-11-26T06:19:12.992Z,95.14
2023-11-26T06:21:39.938Z,94.58
2023-11-26T06:24:07.824Z,94.82
2023-11-26T06:26:36.420Z,94.60
2023-11-26T06:29:03.748Z,94.46
2023-11-26T06:31:31.574Z,94.13
2023-11-26T06:33:59.019Z,93.86
2023-11-26T06:36:26.844Z,93.44
2023-11-26T06:38:55.476Z,93.27
2023-11-26T06:41:29.407Z,92.80
2023-11-26T06:43:57.912Z,92.68
2023-11-26T06:46:25.691Z,92.55
2023-11-26T06:48:52.838Z,92.50
2023-11-26T06:51:19.821Z,92.33
2023-11-26T06:53:47.613Z,92.34
2023-11-26T06:56:15.422Z,92.35
2023-11-26T06:58:44.943Z,92.25
2023-11-26T07:01:12.992Z,92.09
2023-11-26T07:03:40.765Z,92.14
2023-11-26T07:06:10.102Z,91.34
2023-11-26T07:08:39.010Z,90.94
2023-11-26T07:11:20.097Z,90.68
2023-11-26T07:13:49.361Z,90.41
2023-11-26T07:16:18.455Z,90.30
2023-11-26T07:18:46.678Z,89.67
2023-11-26T07:21:13.836Z,89.91
2023-11-26T07:23:41.041Z,90.33
2023-11-26T07:26:16.471Z,89.70
2023-11-26T07:28:43.518Z,89.58
2023-11-26T07:31:18.368Z,89.69
2023-11-26T07:33:46.870Z,89.35
2023-11-26T07:36:20.937Z,89.76
2023-11-26T07:38:48.067Z,89.60
2023-11-26T07:41:15.056Z,89.53
2023-11-26T07:43:43.032Z,89.53
2023-11-26T07:46:11.441Z,88.91
2023-11-26T07:48:39.977Z,88.38
2023-11-26T07:51:07.513Z,88.27
2023-11-26T07:53:35.129Z,88.69
2023-11-26T07:56:02.593Z,88.39
2023-11-26T07:58:33.121Z,87.41
2023-11-26T08:01:00.458Z,87.56
2023-11-26T08:03:28.608Z,87.32
2023-11-26T08:05:55.941Z,87.32
2023-11-26T08:08:23.937Z,87.19
2023-11-26T08:10:52.258Z,86.83
2023-11-26T08:13:24.320Z,87.06
2023-11-26T08:15:51.888Z,86.56
2023-11-26T08:18:19.779Z,86.48
2023-11-26T08:20:48.481Z,86.76
2023-11-26T08:23:15.532Z,86.78
2023-11-26T08:25:47.841Z,85.99
2023-11-26T08:28:17.719Z,86.15
2023-11-26T08:30:49.134Z,85.29
2023-11-26T08:33:22.514Z,84.61
2023-11-26T08:35:57.741Z,84.46
2023-11-26T08:38:25.725Z,84.51
2023-11-26T08:40:55.592Z,84.23
2023-11-26T08:43:22.979Z,83.35
2023-11-26T08:45:50.260Z,83.34
2023-11-26T08:48:18.350Z,82.96
2023-11-26T08:50:45.301Z,82.72
2023-11-26T08:53:14.131Z,82.52
2023-11-26T08:55:41.381Z,82.77
2023-11-26T08:58:08.719Z,82.67
2023-11-26T09:00:36.102Z,82.49
2023-11-26T09:03:03.103Z,82.88
2023-11-26T09:05:30.233Z,83.54
2023-11-26T09:07:57.357Z,83.70
2023-11-26T09:10:24.761Z,84.20
2023-11-26T09:12:52.118Z,83.88
2023-11-26T09:15:19.470Z,83.16
2023-11-26T09:17:46.693Z,81.93
2023-11-26T09:20:14.334Z,80.70
2023-11-26T09:22:42.187Z,80.45
2023-11-26T09:25:10.967Z,80.14
2023-11-26T09:27:38.116Z,79.44
2023-11-26T09:30:09.763Z,79.13
2023-11-26T09:32:37.152Z,79.96
2023-11-26T09:35:04.557Z,80.46
2023-11-26T09:37:31.558Z,80.39
2023-11-26T09:39:58.670Z,80.27
2023-11-26T09:42:26.523Z,79.99
2023-11-26T09:44:53.720Z,80.26
2023-11-26T09:47:20.895Z,79.99
2023-11-26T09:49:48.684Z,79.68
2023-11-26T09:52:18.304Z,79.69
2023-11-26T09:54:45.325Z,78.96
2023-11-26T09:57:14.249Z,77.94
2023-11-26T09:59:41.586Z,76.45
2023-11-26T10:02:11.702Z,77.14
2023-11-26T10:04:46.181Z,76.34
2023-11-26T10:07:13.205Z,76.05
2023-11-26T10:09:40.346Z,75.74
2023-11-26T10:12:07.906Z,74.93
2023-11-26T10:14:34.924Z,73.81
2023-11-26T10:17:13.394Z,72.85
2023-11-26T10:19:41.364Z,72.95
2023-11-26T10:22:08.378Z,72.96
2023-11-26T10:24:35.316Z,72.27
2023-11-26T10:27:15.396Z,72.95
2023-11-26T10:29:44.645Z,73.06
2023-11-26T10:32:14.021Z,72.44
2023-11-26T10:34:43.112Z,72.12
2023-11-26T10:37:21.823Z,72.26
2023-11-26T10:40:00.111Z,71.54
2023-11-26T10:42:30.945Z,71.49
2023-11-26T10:44:59.845Z,71.18
2023-11-26T10:47:29.541Z,70.56
2023-11-26T10:50:06.223Z,71.66
2023-11-26T10:52:47.324Z,71.68
2023-11-26T10:55:31.334Z,70.63
2023-11-26T10:58:17.202Z,70.52
2023-11-26T11:00:49.846Z,70.87
2023-11-26T11:03:17.293Z,70.42
2023-11-26T11:05:48.533Z,69.95
2023-11-26T11:08:17.412Z,69.02
2023-11-26T11:11:19.194Z,68.44
2023-11-26T11:13:47.618Z,67.85
2023-11-26T11:16:14.640Z,67.04
2023-11-26T11:18:47.535Z,66.88
2023-11-26T11:21:18.487Z,67.32
2023-11-26T11:23:51.398Z,66.98
2023-11-26T11:26:19.865Z,66.30
2023-11-26T11:28:49.335Z,66.17
2023-11-26T11:31:18.880Z,66.20
2023-11-26T11:33:59.233Z,65.25
2023-11-26T11:36:46.133Z,64.49
2023-11-26T11:39:17.226Z,64.58
2023-11-26T11:42:00.039Z,63.52
2023-11-26T11:44:46.093Z,62.73
2023-11-26T11:47:34.056Z,61.95
2023-11-26T11:50:01.827Z,62.54
2023-11-26T11:52:28.736Z,62.92
2023-11-26T11:55:06.908Z,62.75
2023-11-26T11:57:48.372Z,61.86
2023-11-26T12:00:22.895Z,59.98
2023-11-26T12:02:51.229Z,60.18
2023-11-26T12:05:26.759Z,60.18
2023-11-26T12:07:54.751Z,59.45
2023-11-26T12:10:29.697Z,59.71
2023-11-26T12:13:08.057Z,59.68
2023-11-26T12:15:36.411Z,58.99
2023-11-26T12:18:03.595Z,58.96
2023-11-26T12:20:30.920Z,57.94
2023-11-26T12:22:58.373Z,58.88
2023-11-26T12:25:25.428Z,58.25
2023-11-26T12:28:10.570Z,57.57
2023-11-26T12:30:39.651Z,58.25
2023-11-26T12:33:09.120Z,57.29
2023-11-26T12:35:39.293Z,58.22
2023-11-26T12:38:08.299Z,58.53
2023-11-26T12:40:37.500Z,58.12
2023-11-26T12:43:04.995Z,58.52
2023-11-26T12:45:32.205Z,57.25
2023-11-26T12:47:59.480Z,57.23
2023-11-26T12:50:40.374Z,57.15
2023-11-26T12:53:12.954Z,56.54
2023-11-26T12:55:47.118Z,57.04
2023-11-26T12:58:26.404Z,57.65
2023-11-26T13:00:53.665Z,58.17
2023-11-26T13:03:21.775Z,58.09
2023-11-26T13:05:50.253Z,58.06
2023-11-26T13:08:22.767Z,58.45
2023-11-26T13:10:56.817Z,58.71
2023-11-26T13:13:34.624Z,59.36
2023-11-26T13:16:04.659Z,59.67
2023-11-26T13:18:32.112Z,59.06
2023-11-26T13:21:02.915Z,59.41
2023-11-26T13:23:30.657Z,58.98
2023-11-26T13:25:59.278Z,59.10
2023-11-26T13:28:28.564Z,59.43
2023-11-26T13:30:55.700Z,59.77
2023-11-26T13:33:23.121Z,59.95
2023-11-26T13:35:51.654Z,59.69
2023-11-26T13:38:19.206Z,59.90
2023-11-26T13:40:49.373Z,59.58
2023-11-26T13:43:20.989Z,60.01
2023-11-26T13:45:48.498Z,58.79
2023-11-26T13:48:15.884Z,58.63
2023-11-26T13:50:43.469Z,58.10
2023-11-26T13:53:11.042Z,58.34
2023-11-26T13:55:38.004Z,58.83
2023-11-26T13:58:06.782Z,58.80
2023-11-26T14:00:34.144Z,59.62
2023-11-26T14:03:03.100Z,59.26
2023-11-26T14:05:30.735Z,59.56
2023-11-26T14:07:58.009Z,59.63
2023-11-26T14:10:28.661Z,60.03
2023-11-26T14:13:09.351Z,60.16
2023-11-26T14:15:37.030Z,60.11
2023-11-26T14:18:07.629Z,60.62
2023-11-26T14:20:39.098Z,60.33
2023-11-26T14:23:09.168Z,60.49
2023-11-26T14:25:36.446Z,60.52
2023-11-26T14:28:04.006Z,61.00
2023-11-26T14:30:32.639Z,61.18
2023-11-26T14:33:00.124Z,60.42
2023-11-26T14:35:27.118Z,60.26
2023-11-26T14:37:55.415Z,59.29
2023-11-26T14:40:23.429Z,59.80
2023-11-26T14:42:50.670Z,60.21
2023-11-26T14:45:17.728Z,58.77
2023-11-26T14:47:46.445Z,58.97
2023-11-26T14:50:19.240Z,57.85
2023-11-26T14:52:47.849Z,57.79
2023-11-26T14:55:15.429Z,58.49
2023-11-26T14:57:43.452Z,58.79
2023-11-26T15:00:12.124Z,59.05
2023-11-26T15:02:39.780Z,59.66
2023-11-26T15:05:08.407Z,60.20
2023-11-26T15:07:35.613Z,60.27
2023-11-26T15:10:04.609Z,61.16
2023-11-26T15:12:31.876Z,61.45
2023-11-26T15:14:58.947Z,61.74
2023-11-26T15:17:25.933Z,62.02
2023-11-26T15:19:53.285Z,62.13
2023-11-26T15:22:20.341Z,62.26
2023-11-26T15:24:49.773Z,62.74
2023-11-26T15:27:17.177Z,62.70
2023-11-26T15:29:45.644Z,63.13
2023-11-26T15:32:13.365Z,63.55
2023-11-26T15:34:41.113Z,63.71
2023-11-26T15:37:10.737Z,63.46
2023-11-26T15:39:38.017Z,63.92
2023-11-26T15:42:05.459Z,63.78
2023-11-26T15:44:32.503Z,64.14
2023-11-26T15:46:59.604Z,64.10
2023-11-26T15:49:27.360Z,64.02
2023-11-26T15:51:55.390Z,64.26
2023-11-26T15:54:22.534Z,63.89
2023-11-26T15:56:53.554Z,63.46
2023-11-26T15:59:24.477Z,63.12
2023-11-26T16:01:52.768Z,62.37
2023-11-26T16:04:20.348Z,61.58
2023-11-26T16:06:47.776Z,61.87
2023-11-26T16:09:15.086Z,61.86
2023-11-26T16:11:43.853Z,61.36
2023-11-26T16:14:10.917Z,60.93
2023-11-26T16:16:37.874Z,59.94
2023-11-26T16:19:05.135Z,59.80
2023-11-26T16:21:32.880Z,59.98
2023-11-26T16:24:00.190Z,59.92
2023-11-26T16:26:29.129Z,60.54
2023-11-26T16:28:56.257Z,60.30
2023-11-26T16:31:23.713Z,60.42
2023-11-26T16:33:54.216Z,59.96
2023-11-26T16:36:23.583Z,60.19
2023-11-26T16:38:50.776Z,60.51
2023-11-26T16:41:20.720Z,60.27
2023-11-26T16:43:48.513Z,60.25
2023-11-26T16:46:17.744Z,60.16
2023-11-26T16:48:47.063Z,60.62
2023-11-26T16:51:14.978Z,60.88
2023-11-26T16:53:42.867Z,61.13
2023-11-26T16:56:11.519Z,61.49
2023-11-26T16:58:40.019Z,61.15
2023-11-26T17:01:08.940Z,61.16
2023-11-26T17:03:36.555Z,61.35
2023-11-26T17:06:04.736Z,61.58
2023-11-26T17:08:31.829Z,61.55
2023-11-26T17:10:59.515Z,61.62
2023-11-26T17:13:27.790Z,61.79
2023-11-26T17:15:55.314Z,61.78
2023-11-26T17:18:22.801Z,61.50
2023-11-26T17:20:51.465Z,60.98
2023-11-26T17:23:18.916Z,60.74
2023-11-26T17:25:52.266Z,61.19
2023-11-26T17:28:20.382Z,61.20
2023-11-26T17:30:50.808Z,61.07
2023-11-26T17:33:19.395Z,60.75
2023-11-26T17:35:47.395Z,60.62
2023-11-26T17:38:14.546Z,61.24
2023-11-26T17:40:42.449Z,61.52
2023-11-26T17:43:10.487Z,62.44
2023-11-26T17:45:37.622Z,62.34
2023-11-26T17:48:05.504Z,62.40
2023-11-26T17:50:33.953Z,62.75
2023-11-26T17:53:07.818Z,62.46
2023-11-26T17:55:40.300Z,62.95
2023-11-26T17:58:07.552Z,63.37
2023-11-26T18:00:35.959Z,63.34
2023-11-26T18:03:02.966Z,63.77
2023-11-26T18:05:30.157Z,63.92
2023-11-26T18:07:58.448Z,64.27
2023-11-26T18:10:25.642Z,64.68
2023-11-26T18:12:52.907Z,64.96
2023-11-26T18:15:20.261Z,65.02
2023-11-26T18:17:48.105Z,65.38
2023-11-26T18:20:19.434Z,65.71
2023-11-26T18:22:47.027Z,66.11
2023-11-26T18:25:14.824Z,65.97
2023-11-26T18:27:42.856Z,66.30
2023-11-26T18:30:11.541Z,66.41
2023-11-26T18:32:39.248Z,66.45
2023-11-26T18:35:06.538Z,66.71
2023-11-26T18:37:34.035Z,66.60
2023-11-26T18:40:01.437Z,67.12
2023-11-26T18:42:28.639Z,66.61
2023-11-26T18:44:56.522Z,67.55
2023-11-26T18:47:23.505Z,67.41
2023-11-26T18:49:50.596Z,67.48
2023-11-26T18:52:18.747Z,67.69
2023-11-26T18:54:46.431Z,67.55
2023-11-26T18:57:13.792Z,67.90
2023-11-26T18:59:41.590Z,67.74
2023-11-26T19:02:09.465Z,67.97
2023-11-26T19:04:39.603Z,67.66
2023-11-26T19:07:07.768Z,67.89
2023-11-26T19:09:35.159Z,68.01
2023-11-26T19:12:02.879Z,68.12
2023-11-26T19:14:31.237Z,68.20
2023-11-26T19:17:00.251Z,67.89
2023-11-26T19:19:27.343Z,68.13
2023-11-26T19:21:54.960Z,67.80
2023-11-26T19:24:22.051Z,68.35
2023-11-26T19:26:48.938Z,68.12
2023-11-26T19:29:15.924Z,68.46
2023-11-26T19:31:43.164Z,68.44
2023-11-26T19:34:10.497Z,68.62
2023-11-26T19:36:37.869Z,68.72
2023-11-26T19:39:04.863Z,68.68
2023-11-26T19:41:32.020Z,68.07
2023-11-26T19:43:59.067Z,68.25
2023-11-26T19:46:26.355Z,68.39
2023-11-26T19:48:53.368Z,68.75
2023-11-26T19:51:26.381Z,68.88
2023-11-26T19:53:54.769Z,69.10
2023-11-26T19:56:22.401Z,69.21
2023-11-26T19:58:49.298Z,69.83
2023-11-26T20:01:19.006Z,69.97
2023-11-26T20:03:46.988Z,70.49
2023-11-26T20:06:14.276Z,70.57
2023-11-26T20:08:41.423Z,71.07
2023-11-26T20:11:09.823Z,71.12
2023-11-26T20:13:37.044Z,71.22
2023-11-26T20:16:04.467Z,71.33
2023-11-26T20:18:34.934Z,71.87
2023-11-26T20:21:02.770Z,71.66
2023-11-26T20:23:29.974Z,71.74
2023-11-26T20:25:56.927Z,71.77
2023-11-26T20:28:24.719Z,72.16
2023-11-26T20:30:55.878Z,72.31
2023-11-26T20:33:30.891Z,72.15
2023-11-26T20:35:57.954Z,72.60
2023-11-26T20:38:24.849Z,72.82
2023-11-26T20:40:53.122Z,72.99
2023-11-26T20:43:20.112Z,73.07
2023-11-26T20:45:47.324Z,73.05
2023-11-26T20:48:14.268Z,73.19
2023-11-26T20:50:41.997Z,73.35
2023-11-26T20:53:08.919Z,74.08
2023-11-26T20:55:36.066Z,74.35
2023-11-26T20:58:03.475Z,74.53
2023-11-26T21:00:30.356Z,75.92
2023-11-26T21:02:59.902Z,76.45
2023-11-26T21:05:26.946Z,77.63
2023-11-26T21:07:53.860Z,77.40
2023-11-26T21:10:22.880Z,77.68
2023-11-26T21:12:50.040Z,77.73
2023-11-26T21:15:17.062Z,77.71
2023-11-26T21:17:44.056Z,77.73
2023-11-26T21:20:12.747Z,77.57
2023-11-26T21:22:41.259Z,78.05
2023-11-26T21:25:08.586Z,78.15
2023-11-26T21:27:35.906Z,78.42
2023-11-26T21:30:03.324Z,78.34
2023-11-26T21:32:31.502Z,78.59
2023-11-26T21:34:59.060Z,79.46
2023-11-26T21:37:30.217Z,79.51
2023-11-26T21:39:57.223Z,79.95
2023-11-26T21:42:24.220Z,80.38
2023-11-26T21:44:51.504Z,80.66
2023-11-26T21:47:18.524Z,80.86
2023-11-26T21:49:48.484Z,80.81
2023-11-26T21:52:16.605Z,81.23
2023-11-26T21:54:43.812Z,81.46
2023-11-26T21:57:10.681Z,81.09
2023-11-26T21:59:37.637Z,81.27
2023-11-26T22:02:04.998Z,81.43
2023-11-26T22:04:32.451Z,81.63
2023-11-26T22:06:59.397Z,81.54
2023-11-26T22:09:26.309Z,81.56
2023-11-26T22:11:53.877Z,81.65
2023-11-26T22:14:20.889Z,82.06
2023-11-26T22:16:48.268Z,82.26
2023-11-26T22:19:15.168Z,82.64
2023-11-26T22:21:42.117Z,83.23
2023-11-26T22:24:09.686Z,83.36
2023-11-26T22:26:40.405Z,84.03
2023-11-26T22:29:07.427Z,84.37
2023-11-26T22:31:34.831Z,84.91
2023-11-26T22:34:02.649Z,85.21
2023-11-26T22:36:31.602Z,85.34
2023-11-26T22:38:59.365Z,85.47
2023-11-26T22:41:28.482Z,85.58
2023-11-26T22:43:59.459Z,85.49
2023-11-26T22:46:28.347Z,86.22
2023-11-26T22:48:58.409Z,86.25
2023-11-26T22:51:26.143Z,86.32
2023-11-26T22:53:53.858Z,86.43
2023-11-26T22:56:25.765Z,86.78
2023-11-26T22:58:56.377Z,86.78
2023-11-26T23:01:24.164Z,86.93
2023-11-26T23:03:52.838Z,86.95
2023-11-26T23:06:20.081Z,86.96
2023-11-26T23:08:46.978Z,86.95
2023-11-26T23:11:19.852Z,87.24
2023-11-26T23:13:47.640Z,87.24
2023-11-26T23:16:17.836Z,87.32
2023-11-26T23:18:45.312Z,87.09
2023-11-26T23:21:16.328Z,87.67
2023-11-26T23:23:51.743Z,87.91
2023-11-26T23:26:23.657Z,88.93
2023-11-26T23:28:51.074Z,89.95
2023-11-26T23:31:19.753Z,90.21
2023-11-26T23:33:48.418Z,90.82
2023-11-26T23:36:16.149Z,91.01
2023-11-26T23:38:44.481Z,91.61
2023-11-26T23:41:12.526Z,92.05
2023-11-26T23:43:40.598Z,92.02
2023-11-26T23:46:08.031Z,92.24
2023-11-26T23:48:35.054Z,92.51
2023-11-26T23:51:02.046Z,92.41
2023-11-26T23:53:29.283Z,93.04
2023-11-26T23:55:56.124Z,93.06
2023-11-26T23:58:23.069Z,93.03
